Time;durP1;ratioP1;P1;durP2;ratioP2;P2;SDS_P1;SDS_P2;PMS_P1;PMS_P2;Temp;Humidity;BMP_temperature;BMP_pressure;BME280_temperature;BME280_humidity;BME280_pressure;Samples;Min_cycle;Max_cycle;Signal;HPM_P1;HPM_P2
2023/06/02 00:01:01;;;;;;;;;;;;;;;20.51;50.68;102051.38;5051988;28;20385;-51
2023/06/02 00:03:33;;;;;;;;;;;;;;;20.54;50.65;102059.09;5053750;28;19920;-53
2023/06/02 00:05:59;;;;;;;;;;;;;;;20.62;50.60;102043.25;5059973;28;19937;-55
2023/06/02 00:08:28;;;;;;;;;;;;;;;20.65;50.20;102050.13;5055338;28;19920;-55
2023/06/02 00:10:53;;;;;;;;;;;;;;;20.68;50.45;102049.66;5055758;28;20000;-54
2023/06/02 00:13:19;;;;;;;;;;;;;;;20.80;50.46;102051.59;5054664;28;19924;-54
2023/06/02 00:15:45;;;;;;;;;;;;;;;20.78;50.46;102039.03;5059917;28;19912;-55
2023/06/02 00:18:10;;;;;;;;;;;;;;;20.76;50.62;102043.06;5058958;28;19919;-54
2023/06/02 00:20:36;;;;;;;;;;;;;;;20.78;50.60;102041.75;5056633;28;19972;-53
2023/06/02 00:23:02;;;;;;;;;;;;;;;20.75;50.88;102038.69;5057048;28;19923;-52
2023/06/02 00:25:27;;;;;;;;;;;;;;;20.56;51.53;102038.78;5054887;28;19913;-55
2023/06/02 00:27:52;;;;;;;;;;;;;;;20.53;51.54;102041.97;5054457;28;19912;-52
2023/06/02 00:30:18;;;;;;;;;;;;;;;20.71;51.09;102030.16;5038478;28;19948;-53
2023/06/02 00:32:43;;;;;;;;;;;;;;;20.69;51.39;102026.84;5056340;28;19912;-54
2023/06/02 00:35:08;;;;;;;;;;;;;;;20.55;51.72;102028.16;5036975;28;19939;-54
2023/06/02 00:37:34;;;;;;;;;;;;;;;20.55;51.74;102020.00;5056669;28;19971;-54
2023/06/02 00:39:59;;;;;;;;;;;;;;;20.48;52.05;102020.91;5038952;28;19944;-55
2023/06/02 00:42:24;;;;;;;;;;;;;;;20.58;52.10;102019.53;5060439;28;19948;-55
2023/06/02 00:44:50;;;;;;;;;;;;;;;20.36;52.35;102022.78;5039426;28;19909;-57
2023/06/02 00:47:16;;;;;;;;;;;;;;;20.47;52.29;102027.41;5038769;28;19923;-54
2023/06/02 00:49:41;;;;;;;;;;;;;;;20.68;52.21;102025.19;5041399;28;19985;-53
2023/06/02 00:52:08;;;;;;;;;;;;;;;20.46;52.57;102030.38;5061907;28;19936;-54
2023/06/02 00:54:33;;;;;;;;;;;;;;;20.66;52.62;102026.50;5040701;28;20008;-54
2023/06/02 00:56:58;;;;;;;;;;;;;;;20.45;52.67;102020.56;5044305;28;19921;-57
2023/06/02 00:59:24;;;;;;;;;;;;;;;20.65;52.31;102031.09;5058249;28;19913;-54
2023/06/02 01:01:50;;;;;;;;;;;;;;;20.57;52.61;102034.97;5059546;28;19913;-53
2023/06/02 01:04:17;;;;;;;;;;;;;;;20.41;53.38;102027.50;5056346;28;19916;-57
2023/06/02 01:06:44;;;;;;;;;;;;;;;20.27;54.31;102027.72;5044223;28;19913;-58
2023/06/02 01:09:12;;;;;;;;;;;;;;;20.49;53.67;102033.44;5061751;28;19955;-55
2023/06/02 01:11:38;;;;;;;;;;;;;;;20.18;54.78;102021.78;5054353;28;19979;-58
2023/06/02 01:14:03;;;;;;;;;;;;;;;20.50;54.04;102028.84;5057684;28;19913;-52
2023/06/02 01:16:30;;;;;;;;;;;;;;;20.61;54.15;102029.91;5056041;28;19920;-55
2023/06/02 01:18:59;;;;;;;;;;;;;;;20.54;54.82;102023.78;5057743;28;19913;-56
2023/06/02 01:21:28;;;;;;;;;;;;;;;20.32;55.37;102027.03;5059604;28;19941;-53
2023/06/02 01:23:57;;;;;;;;;;;;;;;20.49;54.90;102025.28;5058970;28;19913;-55
2023/06/02 01:26:23;;;;;;;;;;;;;;;20.34;55.70;102030.34;5038118;28;19920;-53
2023/06/02 01:28:49;;;;;;;;;;;;;;;20.42;55.52;102040.06;5053839;28;19921;-56
2023/06/02 01:31:22;;;;;;;;;;;;;;;20.26;55.41;102027.94;5057886;28;19944;-56
2023/06/02 01:33:57;;;;;;;;;;;;;;;20.20;55.39;102033.25;5055508;28;19913;-51
2023/06/02 01:36:23;;;;;;;;;;;;;;;20.15;54.93;102035.00;5035697;28;19912;-51
2023/06/02 01:38:50;;;;;;;;;;;;;;;20.12;54.70;102030.88;5038297;28;19927;-52
2023/06/02 01:41:18;;;;;;;;;;;;;;;20.07;53.98;102036.16;5053636;28;19913;-53
2023/06/02 01:43:44;;;;;;;;;;;;;;;20.13;53.43;102034.41;5057562;28;19917;-52
2023/06/02 01:46:11;;;;;;;;;;;;;;;20.23;52.35;102033.84;5038048;28;19908;-55
2023/06/02 01:48:36;;;;;;;;;;;;;;;20.03;52.58;102040.38;5045786;28;19917;-51
2023/06/02 01:51:02;;;;;;;;;;;;;;;20.20;52.36;102033.25;5040452;28;19913;-54
2023/06/02 01:53:28;;;;;;;;;;;;;;;20.11;52.40;102033.81;5057416;28;19981;-53
2023/06/02 01:55:54;;;;;;;;;;;;;;;20.04;52.59;102033.88;5039622;28;19917;-55
2023/06/02 01:58:20;;;;;;;;;;;;;;;19.93;52.88;102035.50;5040018;28;20396;-54
2023/06/02 02:00:46;;;;;;;;;;;;;;;20.14;52.64;102031.47;5038244;28;19920;-52
2023/06/02 02:03:12;;;;;;;;;;;;;;;20.11;52.61;102036.53;5058889;28;19913;-53
2023/06/02 02:05:37;;;;;;;;;;;;;;;20.04;53.23;102039.31;5057923;28;19913;-54
2023/06/02 02:08:04;;;;;;;;;;;;;;;19.97;53.32;102036.72;5056053;28;19920;-54
2023/06/02 02:10:30;;;;;;;;;;;;;;;19.89;53.77;102037.84;5057283;28;19917;-54
2023/06/02 02:12:55;;;;;;;;;;;;;;;19.72;54.43;102043.06;5053393;28;19920;-53
2023/06/02 02:15:21;;;;;;;;;;;;;;;19.82;54.45;102047.91;5037803;28;19935;-55
2023/06/02 02:17:47;;;;;;;;;;;;;;;19.82;54.52;102044.41;5058857;28;19897;-54
2023/06/02 02:20:14;;;;;;;;;;;;;;;19.73;55.21;102052.88;5054239;28;19916;-54
2023/06/02 02:22:39;;;;;;;;;;;;;;;19.91;54.40;102043.03;5058203;28;19940;-56
2023/06/02 02:25:05;;;;;;;;;;;;;;;19.48;55.56;102044.78;5039612;28;19913;-57
2023/06/02 02:27:30;;;;;;;;;;;;;;;19.56;54.82;102041.75;5057021;28;19913;-54
2023/06/02 02:29:57;;;;;;;;;;;;;;;19.54;54.41;102037.66;5056658;28;19925;-51
2023/06/02 02:32:23;;;;;;;;;;;;;;;19.43;54.55;102039.22;5035982;28;19917;-55
2023/06/02 02:34:48;;;;;;;;;;;;;;;19.59;53.91;102044.03;5038490;28;19921;-56
2023/06/02 02:37:16;;;;;;;;;;;;;;;19.64;53.97;102043.34;5039801;28;19913;-55
2023/06/02 02:39:42;;;;;;;;;;;;;;;19.66;53.67;102048.56;5039719;28;19984;-56
2023/06/02 02:42:08;;;;;;;;;;;;;;;19.55;54.04;102045.53;5058068;28;19913;-53
2023/06/02 02:44:33;;;;;;;;;;;;;;;19.63;53.62;102042.53;5056409;28;19913;-53
2023/06/02 02:46:59;;;;;;;;;;;;;;;19.51;53.99;102041.63;5039389;28;19921;-56
2023/06/02 02:49:25;;;;;;;;;;;;;;;19.43;53.98;102037.31;5039841;28;19921;-56
2023/06/02 02:51:51;;;;;;;;;;;;;;;19.51;54.00;102046.25;5037785;28;19912;-54
2023/06/02 02:54:17;;;;;;;;;;;;;;;19.46;54.16;102044.19;5035322;28;19983;-55
2023/06/02 02:56:43;;;;;;;;;;;;;;;19.49;53.57;102046.44;5061052;28;19912;-55
2023/06/02 02:59:09;;;;;;;;;;;;;;;19.39;54.53;102046.16;5040796;28;19915;-55
2023/06/02 03:01:34;;;;;;;;;;;;;;;19.33;54.00;102047.88;5060956;28;19948;-57
2023/06/02 03:04:01;;;;;;;;;;;;;;;19.57;53.65;102051.56;5042737;28;19980;-52
2023/06/02 03:06:29;;;;;;;;;;;;;;;19.21;54.29;102039.66;5052515;28;20406;-56
2023/06/02 03:08:54;;;;;;;;;;;;;;;19.40;54.39;102045.09;5039963;28;19988;-54
2023/06/02 03:11:22;;;;;;;;;;;;;;;19.45;54.17;102046.06;5039336;28;19920;-53
2023/06/02 03:13:49;;;;;;;;;;;;;;;19.33;54.69;102047.88;5042363;28;19927;-56
2023/06/02 03:16:17;;;;;;;;;;;;;;;19.30;54.67;102043.72;5044735;28;20376;-54
2023/06/02 03:18:42;;;;;;;;;;;;;;;19.35;54.04;102046.59;5054611;28;19921;-53
2023/06/02 03:21:09;;;;;;;;;;;;;;;19.38;54.16;102049.94;5042601;28;19919;-57
2023/06/02 03:23:37;;;;;;;;;;;;;;;19.31;54.25;102055.41;5054467;28;19935;-50
2023/06/02 03:26:04;;;;;;;;;;;;;;;19.24;54.45;102049.22;5040879;28;19940;-56
2023/06/02 03:28:30;;;;;;;;;;;;;;;19.30;54.41;102043.72;5042541;28;19983;-53
2023/06/02 03:30:56;;;;;;;;;;;;;;;19.30;54.38;102046.44;5044371;28;19935;-57
2023/06/02 03:33:22;;;;;;;;;;;;;;;19.34;54.67;102050.34;5036467;28;19913;-53
2023/06/02 03:35:48;;;;;;;;;;;;;;;19.10;54.91;102051.22;5059884;28;19920;-54
2023/06/02 03:38:14;;;;;;;;;;;;;;;19.02;55.95;102047.75;5055452;28;19913;-55
2023/06/02 03:40:40;;;;;;;;;;;;;;;18.83;56.34;102051.44;5040467;28;19944;-53
2023/06/02 03:43:06;;;;;;;;;;;;;;;19.06;54.92;102048.97;5061174;28;19947;-54
2023/06/02 03:45:32;;;;;;;;;;;;;;;19.07;54.95;102049.81;5040495;28;19913;-52
2023/06/02 03:47:58;;;;;;;;;;;;;;;19.03;54.83;102049.41;5042384;28;19936;-52
2023/06/02 03:50:24;;;;;;;;;;;;;;;19.15;54.42;102054.94;5042001;28;19917;-55
2023/06/02 03:52:49;;;;;;;;;;;;;;;19.21;54.57;102053.22;5045923;28;19919;-53
2023/06/02 03:55:16;;;;;;;;;;;;;;;19.30;54.19;102054.56;5043826;28;19913;-54
2023/06/02 03:57:42;;;;;;;;;;;;;;;19.26;54.63;102045.22;5041591;28;19951;-54
2023/06/02 04:00:10;;;;;;;;;;;;;;;19.01;55.01;102046.09;5039668;28;19913;-53
2023/06/02 04:02:47;;;;;;;;;;;;;;;19.12;54.54;102054.53;5059017;28;19924;-56
2023/06/02 04:05:15;;;;;;;;;;;;;;;19.03;55.04;102057.56;5036822;28;20226;-52
2023/06/02 04:07:41;;;;;;;;;;;;;;;18.85;55.62;102057.47;5038351;28;19913;-57
2023/06/02 04:10:07;;;;;;;;;;;;;;;18.90;54.86;102057.63;5031761;28;19940;-54
2023/06/02 04:12:33;;;;;;;;;;;;;;;19.02;54.24;102064.03;5022676;28;19925;-54
2023/06/02 04:14:58;;;;;;;;;;;;;;;18.65;55.28;102054.94;5030311;28;19917;-51
2023/06/02 04:17:25;;;;;;;;;;;;;;;18.87;55.21;102056.22;5027518;28;19913;-50
2023/06/02 04:19:52;;;;;;;;;;;;;;;18.85;55.38;102054.75;5021825;28;19973;-52
2023/06/02 04:22:18;;;;;;;;;;;;;;;19.12;54.38;102055.38;5023454;28;19918;-52
2023/06/02 04:24:45;;;;;;;;;;;;;;;19.00;55.13;102052.56;5021133;28;19941;-53
2023/06/02 04:27:11;;;;;;;;;;;;;;;19.00;54.85;102060.72;5020541;28;19957;-50
2023/06/02 04:29:37;;;;;;;;;;;;;;;18.98;54.58;102067.38;5031219;28;20396;-52
2023/06/02 04:32:03;;;;;;;;;;;;;;;19.03;54.22;102067.56;5023530;28;19914;-54
2023/06/02 04:34:31;;;;;;;;;;;;;;;19.16;53.91;102072.06;5025413;28;19914;-54
2023/06/02 04:36:58;;;;;;;;;;;;;;;19.12;54.58;102070.81;5029228;28;19913;-53
2023/06/02 04:39:23;;;;;;;;;;;;;;;19.24;53.80;102074.47;5025978;28;19913;-51
2023/06/02 04:41:50;;;;;;;;;;;;;;;19.07;54.75;102071.50;5019773;28;19963;-52
2023/06/02 04:44:18;;;;;;;;;;;;;;;19.18;54.49;102064.53;5025633;28;19977;-51
2023/06/02 04:46:45;;;;;;;;;;;;;;;19.13;53.86;102058.91;5026771;28;19936;-56
2023/06/02 04:49:11;;;;;;;;;;;;;;;19.17;54.40;102060.16;5029080;28;19917;-51
2023/06/02 04:51:37;;;;;;;;;;;;;;;19.15;53.84;102064.97;5029815;28;19913;-56
2023/06/02 04:54:03;;;;;;;;;;;;;;;19.20;54.45;102057.81;5026508;28;19913;-56
2023/06/02 04:56:30;;;;;;;;;;;;;;;19.23;54.06;102061.97;5026703;28;19929;-55
2023/06/02 04:58:56;;;;;;;;;;;;;;;19.23;54.15;102058.41;5025872;28;19944;-55
2023/06/02 05:01:22;;;;;;;;;;;;;;;19.14;55.30;102061.41;5024774;28;19928;-57
2023/06/02 05:03:48;;;;;;;;;;;;;;;18.93;55.13;102065.34;5024449;28;19913;-55
2023/06/02 05:06:15;;;;;;;;;;;;;;;19.22;54.21;102065.72;5022993;28;19928;-56
2023/06/02 05:08:41;;;;;;;;;;;;;;;19.28;53.64;102066.72;5022545;28;19918;-54
2023/06/02 05:11:07;;;;;;;;;;;;;;;19.16;53.35;102072.06;5055800;28;19917;-54
2023/06/02 05:13:33;;;;;;;;;;;;;;;19.16;53.66;102080.19;5058295;28;19921;-54
2023/06/02 05:15:59;;;;;;;;;;;;;;;19.12;53.56;102073.53;5056116;28;19964;-55
2023/06/02 05:18:25;;;;;;;;;;;;;;;19.24;53.28;102082.59;5036899;28;19944;-54
2023/06/02 05:20:51;;;;;;;;;;;;;;;19.19;53.28;102075.13;5039918;28;19919;-54
2023/06/02 05:23:17;;;;;;;;;;;;;;;19.21;53.25;102074.91;5038600;28;19917;-55
2023/06/02 05:25:43;;;;;;;;;;;;;;;19.39;52.93;102081.44;5037878;28;19920;-55
2023/06/02 05:28:08;;;;;;;;;;;;;;;19.25;53.65;102070.69;5036216;28;19913;-55
2023/06/02 05:30:35;;;;;;;;;;;;;;;19.57;52.78;102080.59;5035979;28;19939;-55
2023/06/02 05:33:00;;;;;;;;;;;;;;;19.57;52.30;102084.13;5022106;28;19994;-54
2023/06/02 05:35:27;;;;;;;;;;;;;;;19.74;52.16;102081.66;5038429;28;19913;-56
2023/06/02 05:37:52;;;;;;;;;;;;;;;19.74;52.40;102078.09;5041539;28;19913;-56
2023/06/02 05:40:18;;;;;;;;;;;;;;;19.64;52.96;102081.34;5036733;28;19943;-57
2023/06/02 05:42:43;;;;;;;;;;;;;;;19.92;52.21;102083.56;5056744;28;19912;-55
2023/06/02 05:45:10;;;;;;;;;;;;;;;19.75;51.98;102077.03;5033356;28;19919;-54
2023/06/02 05:47:37;;;;;;;;;;;;;;;20.11;51.30;102072.66;5033365;28;19956;-54
2023/06/02 05:50:03;;;;;;;;;;;;;;;19.45;52.57;102083.22;5031274;28;19917;-56
2023/06/02 05:52:29;;;;;;;;;;;;;;;19.92;51.89;102080.84;5036590;28;19940;-54
2023/06/02 05:54:55;;;;;;;;;;;;;;;19.97;51.63;102082.03;5057545;28;19909;-55
2023/06/02 05:57:21;;;;;;;;;;;;;;;19.92;51.12;102088.97;5053455;28;19994;-56
2023/06/02 05:59:47;;;;;;;;;;;;;;;19.94;50.41;102085.22;5041201;28;19917;-54
2023/06/02 06:02:12;;;;;;;;;;;;;;;19.91;50.56;102083.75;5053187;28;19927;-56
2023/06/02 06:04:39;;;;;;;;;;;;;;;20.08;50.36;102073.13;5036005;28;19920;-56
2023/06/02 06:07:04;;;;;;;;;;;;;;;20.25;49.53;102075.19;5036529;28;19913;-53
2023/06/02 06:09:31;;;;;;;;;;;;;;;19.94;50.38;102082.50;5034281;28;19953;-53
2023/06/02 06:11:57;;;;;;;;;;;;;;;20.30;49.94;102075.34;5038000;28;20456;-54
2023/06/02 06:14:22;;;;;;;;;;;;;;;20.31;49.94;102077.00;5036530;28;19917;-57
2023/06/02 06:16:48;;;;;;;;;;;;;;;20.37;50.46;102077.94;5038176;28;19977;-57
2023/06/02 06:19:14;;;;;;;;;;;;;;;20.67;49.46;102087.97;5036101;28;19964;-55
2023/06/02 06:21:40;;;;;;;;;;;;;;;20.31;49.99;102079.72;5030822;28;19921;-57
2023/06/02 06:24:07;;;;;;;;;;;;;;;20.50;49.64;102077.75;5033926;28;19981;-57
2023/06/02 06:26:33;;;;;;;;;;;;;;;20.59;49.38;102075.53;5032092;28;20356;-54
2023/06/02 06:29:00;;;;;;;;;;;;;;;20.43;50.23;102074.31;5037808;28;19921;-56
2023/06/02 06:31:26;;;;;;;;;;;;;;;20.76;50.04;102073.78;5034820;28;19921;-54
2023/06/02 06:33:53;;;;;;;;;;;;;;;20.73;49.84;102076.94;5040134;28;19917;-54
2023/06/02 06:36:19;;;;;;;;;;;;;;;20.75;49.73;102077.53;5043730;28;19921;-53
2023/06/02 06:38:45;;;;;;;;;;;;;;;20.89;49.22;102074.66;5035364;28;20000;-54
2023/06/02 06:41:11;;;;;;;;;;;;;;;20.66;49.12;102081.69;5043141;28;19943;-53
2023/06/02 06:43:38;;;;;;;;;;;;;;;20.37;50.10;102077.94;5035936;28;19921;-56
2023/06/02 06:46:09;;;;;;;;;;;;;;;20.80;49.06;102084.22;5037882;28;19925;-54
2023/06/02 06:48:35;;;;;;;;;;;;;;;20.57;48.84;102088.53;5036341;28;19913;-54
2023/06/02 06:51:00;;;;;;;;;;;;;;;21.01;48.45;102091.81;5039436;28;19913;-54
2023/06/02 06:53:26;;;;;;;;;;;;;;;21.13;47.76;102090.97;5036254;28;19978;-54
2023/06/02 06:55:52;;;;;;;;;;;;;;;21.03;47.36;102097.84;5040224;28;19921;-54
2023/06/02 06:58:18;;;;;;;;;;;;;;;21.23;46.78;102095.81;5038387;28;19993;-52
2023/06/02 07:00:43;;;;;;;;;;;;;;;21.41;45.95;102097.59;5038017;28;19913;-56
2023/06/02 07:03:08;;;;;;;;;;;;;;;21.08;47.07;102088.97;5038745;28;19929;-53
2023/06/02 07:05:34;;;;;;;;;;;;;;;21.18;46.86;102100.09;5039840;28;19947;-52
2023/06/02 07:07:59;;;;;;;;;;;;;;;21.72;46.22;102104.56;5040430;28;19920;-52
2023/06/02 07:10:24;;;;;;;;;;;;;;;21.71;45.40;102102.91;5045805;28;19917;-51
2023/06/02 07:12:49;;;;;;;;;;;;;;;21.97;45.25;102100.69;5056142;28;19917;-56
2023/06/02 07:15:15;;;;;;;;;;;;;;;22.14;45.10;102105.38;5059881;28;19944;-55
2023/06/02 07:17:42;;;;;;;;;;;;;;;22.05;45.03;102096.78;5055820;28;19943;-57
2023/06/02 07:20:08;;;;;;;;;;;;;;;22.26;44.49;102102.59;5056839;28;19984;-55
2023/06/02 07:22:34;;;;;;;;;;;;;;;22.20;44.96;102098.94;5058892;28;19912;-57
2023/06/02 07:25:00;;;;;;;;;;;;;;;21.98;46.21;102101.53;5053885;28;19913;-56
2023/06/02 07:27:26;;;;;;;;;;;;;;;22.00;45.50;102096.69;5062241;28;19912;-56
2023/06/02 07:29:52;;;;;;;;;;;;;;;22.16;46.63;102105.97;5056458;28;19928;-53
2023/06/02 07:32:18;;;;;;;;;;;;;;;22.35;45.70;102106.59;5055553;28;19984;-55
2023/06/02 07:34:44;;;;;;;;;;;;;;;22.45;44.21;102106.78;5056058;28;19936;-54
2023/06/02 07:37:09;;;;;;;;;;;;;;;22.61;44.50;102107.91;5057137;28;19913;-55
2023/06/02 07:39:35;;;;;;;;;;;;;;;22.72;43.83;102113.53;5058883;28;19919;-57
2023/06/02 07:42:01;;;;;;;;;;;;;;;22.70;43.84;102097.44;5054956;28;20087;-52
2023/06/02 07:44:27;;;;;;;;;;;;;;;22.62;43.81;102109.56;5054293;28;19920;-52
2023/06/02 07:46:52;;;;;;;;;;;;;;;22.83;43.89;102109.06;5035064;28;19925;-50
2023/06/02 07:49:18;;;;;;;;;;;;;;;22.71;43.83;102099.06;5059125;28;19939;-53
2023/06/02 07:51:43;;;;;;;;;;;;;;;22.57;44.64;102098.56;5058341;28;19980;-56
2023/06/02 07:54:08;;;;;;;;;;;;;;;22.95;44.33;102103.53;5061086;28;19976;-54
2023/06/02 07:56:35;;;;;;;;;;;;;;;23.20;43.69;102105.84;5057291;28;19913;-55
2023/06/02 07:59:00;;;;;;;;;;;;;;;23.46;43.08;102108.94;5054711;28;19913;-54
2023/06/02 08:01:26;;;;;;;;;;;;;;;23.57;42.42;102120.84;5057328;28;19936;-51
2023/06/02 08:03:51;;;;;;;;;;;;;;;23.47;42.57;102108.72;5059103;28;19920;-52
2023/06/02 08:06:17;;;;;;;;;;;;;;;23.50;42.83;102112.81;5060247;28;19955;-54
2023/06/02 08:08:45;;;;;;;;;;;;;;;23.40;42.98;102110.78;5056824;28;19946;-56
2023/06/02 08:11:10;;;;;;;;;;;;;;;23.74;42.58;102115.31;5058886;28;19921;-55
2023/06/02 08:13:35;;;;;;;;;;;;;;;23.23;43.75;102113.50;5054154;28;19913;-56
2023/06/02 08:16:01;;;;;;;;;;;;;;;22.80;45.34;102113.13;5069176;28;19912;-54
2023/06/02 08:18:27;;;;;;;;;;;;;;;22.85;45.89;102109.66;5066089;28;19924;-56
2023/06/02 08:20:52;;;;;;;;;;;;;;;22.72;45.72;102106.19;5056342;28;20080;-56
2023/06/02 08:23:19;;;;;;;;;;;;;;;22.55;45.91;102105.34;5056397;28;19924;-53
2023/06/02 08:25:45;;;;;;;;;;;;;;;23.10;45.32;102111.97;5057434;28;19955;-57
2023/06/02 08:28:13;;;;;;;;;;;;;;;23.15;45.69;102103.03;5053093;28;19913;-57
2023/06/02 08:30:42;;;;;;;;;;;;;;;22.30;47.42;102106.50;5058153;28;19928;-56
2023/06/02 08:33:10;;;;;;;;;;;;;;;22.93;46.54;102106.53;5059962;28;19913;-56
2023/06/02 08:35:38;;;;;;;;;;;;;;;22.68;46.88;102113.22;5054758;28;19984;-53
2023/06/02 08:38:07;;;;;;;;;;;;;;;22.80;46.71;102112.28;5064823;28;19991;-54
2023/06/02 08:40:39;;;;;;;;;;;;;;;22.98;46.57;102114.78;5065176;28;19916;-54
2023/06/02 08:43:08;;;;;;;;;;;;;;;23.09;46.25;102113.03;5057684;28;19913;-52
2023/06/02 08:45:34;;;;;;;;;;;;;;;23.01;46.28;102103.38;5064878;28;19956;-54
2023/06/02 08:48:03;;;;;;;;;;;;;;;22.91;46.53;102108.66;5059017;28;19913;-56
2023/06/02 08:50:35;;;;;;;;;;;;;;;22.76;47.02;102101.88;5055039;28;19949;-52
2023/06/02 08:53:05;;;;;;;;;;;;;;;22.60;47.50;102102.69;5059847;28;19935;-55
2023/06/02 08:55:34;;;;;;;;;;;;;;;23.40;46.57;102101.78;5058422;28;19924;-55
2023/06/02 08:57:59;;;;;;;;;;;;;;;23.56;46.06;102109.09;5061395;28;19913;-53
2023/06/02 09:00:25;;;;;;;;;;;;;;;23.60;45.90;102102.06;5059807;28;19948;-56
2023/06/02 09:02:50;;;;;;;;;;;;;;;24.13;45.41;102115.28;5057695;28;19913;-53
2023/06/02 09:05:16;;;;;;;;;;;;;;;24.20;45.11;102113.16;5055980;28;19920;-53
2023/06/02 09:07:45;;;;;;;;;;;;;;;24.32;44.72;102121.19;5064217;28;19916;-53
2023/06/02 09:10:28;;;;;;;;;;;;;;;24.35;44.79;102114.41;5060349;28;19917;-53
2023/06/02 09:12:54;;;;;;;;;;;;;;;23.85;45.24;102114.38;5057931;28;19927;-56
2023/06/02 09:15:19;;;;;;;;;;;;;;;24.12;45.16;102113.63;5057326;28;19917;-55
2023/06/02 09:17:45;;;;;;;;;;;;;;;24.09;44.84;102108.66;5056574;28;19913;-53
2023/06/02 09:20:11;;;;;;;;;;;;;;;24.45;45.48;102116.41;5064938;28;19935;-54
2023/06/02 09:22:52;;;;;;;;;;;;;;;24.40;44.68;102116.38;5045347;28;19996;-53
2023/06/02 09:25:27;;;;;;;;;;;;;;;24.76;43.94;102114.81;5054932;28;19978;-52
2023/06/02 09:27:54;;;;;;;;;;;;;;;24.82;44.13;102112.09;5060701;28;19973;-51
2023/06/02 09:30:19;;;;;;;;;;;;;;;24.92;43.81;102114.94;5054446;28;19917;-54
2023/06/02 09:32:55;;;;;;;;;;;;;;;25.00;43.88;102110.88;5059920;28;19919;-52
2023/06/02 09:35:34;;;;;;;;;;;;;;;25.00;44.58;102105.41;5052556;28;20975;-50
2023/06/02 09:37:59;;;;;;;;;;;;;;;24.85;44.27;102111.59;5056634;28;19917;-51
2023/06/02 09:40:26;;;;;;;;;;;;;;;25.29;43.74;102116.81;5057621;28;19913;-55
2023/06/02 09:42:51;;;;;;;;;;;;;;;25.57;43.46;102120.28;5057387;28;19972;-52
2023/06/02 09:45:16;;;;;;;;;;;;;;;25.79;42.48;102113.78;5060965;28;19935;-54
2023/06/02 09:47:42;;;;;;;;;;;;;;;25.53;42.81;102110.94;5035410;28;19913;-56
2023/06/02 09:50:08;;;;;;;;;;;;;;;25.61;42.97;102117.84;5053963;28;19992;-49
2023/06/02 09:52:33;;;;;;;;;;;;;;;25.71;42.77;102106.09;5066048;28;19979;-51
2023/06/02 09:55:00;;;;;;;;;;;;;;;25.61;43.01;102104.97;5063234;28;19913;-54
2023/06/02 09:57:25;;;;;;;;;;;;;;;25.89;42.65;102105.63;5059140;28;19914;-49
2023/06/02 09:59:51;;;;;;;;;;;;;;;26.34;42.15;102107.97;5056264;28;19984;-52
2023/06/02 10:02:17;;;;;;;;;;;;;;;26.35;41.98;102109.59;5061934;28;19924;-56
2023/06/02 10:04:42;;;;;;;;;;;;;;;26.29;42.12;102117.00;5058443;28;19916;-54
2023/06/02 10:07:13;;;;;;;;;;;;;;;26.19;41.96;102114.25;5058762;28;19920;-55
2023/06/02 10:09:58;;;;;;;;;;;;;;;26.26;41.92;102108.47;5067309;28;19938;-53
2023/06/02 10:12:35;;;;;;;;;;;;;;;26.51;41.78;102109.59;5064859;28;19913;-54
2023/06/02 10:15:19;;;;;;;;;;;;;;;26.56;41.31;102104.94;5068999;28;20678;-55
2023/06/02 10:17:48;;;;;;;;;;;;;;;26.48;41.66;102103.56;5060509;28;19940;-55
2023/06/02 10:20:26;;;;;;;;;;;;;;;26.56;41.35;102104.13;5067291;28;19913;-53
2023/06/02 10:23:11;;;;;;;;;;;;;;;26.79;41.19;102102.75;5060071;28;19908;-56
2023/06/02 10:25:42;;;;;;;;;;;;;;;26.39;41.97;102104.38;5056492;28;19913;-54
2023/06/02 10:28:08;;;;;;;;;;;;;;;26.80;41.47;102106.34;5056875;28;19913;-54
2023/06/02 10:30:35;;;;;;;;;;;;;;;27.00;40.74;102111.84;5058837;28;19939;-52
2023/06/02 10:33:00;;;;;;;;;;;;;;;27.10;40.77;102116.44;5060410;28;19917;-55
2023/06/02 10:35:45;;;;;;;;;;;;;;;27.23;40.41;102111.50;5063980;28;19923;-56
2023/06/02 10:38:25;;;;;;;;;;;;;;;27.54;39.92;102115.00;5054486;28;19913;-54
2023/06/02 10:40:54;;;;;;;;;;;;;;;27.25;40.23;102104.63;5061592;28;19940;-54
2023/06/02 10:43:20;;;;;;;;;;;;;;;27.83;40.10;102108.84;5060665;28;19922;-54
2023/06/02 10:45:45;;;;;;;;;;;;;;;27.55;39.79;102102.91;5059360;28;19949;-54
2023/06/02 10:48:29;;;;;;;;;;;;;;;27.44;39.97;102106.75;5056529;28;19913;-55
2023/06/02 10:50:55;;;;;;;;;;;;;;;28.05;39.65;102108.47;5054311;28;19917;-53
2023/06/02 10:53:20;;;;;;;;;;;;;;;28.68;38.67;102117.09;5060884;28;19926;-55
2023/06/02 10:55:46;;;;;;;;;;;;;;;29.76;37.57;102114.38;5065341;28;19912;-56
2023/06/02 10:58:12;;;;;;;;;;;;;;;30.26;36.53;102115.88;5058343;28;19920;-55
2023/06/02 11:00:44;;;;;;;;;;;;;;;30.36;35.86;102115.72;5059245;28;19912;-55
2023/06/02 11:03:15;;;;;;;;;;;;;;;30.45;36.11;102115.84;5061278;28;19932;-54
2023/06/02 11:05:42;;;;;;;;;;;;;;;30.31;35.64;102113.03;5055150;28;19921;-54
2023/06/02 11:10:42;;;;;;;;;;;;;;;31.13;35.64;102115.50;5057615;28;19917;-56
2023/06/02 11:13:09;;;;;;;;;;;;;;;29.80;36.54;102109.88;5056520;28;19920;-58
2023/06/02 11:15:34;;;;;;;;;;;;;;;29.88;36.42;102108.41;5060049;28;19913;-57
2023/06/02 11:18:03;;;;;;;;;;;;;;;30.51;35.61;102113.84;5061273;28;19920;-56
2023/06/02 11:20:33;;;;;;;;;;;;;;;30.34;36.00;102109.69;5059859;28;19919;-55
2023/06/02 11:23:05;;;;;;;;;;;;;;;30.31;36.13;102111.09;5056376;28;19913;-56
2023/06/02 11:25:30;;;;;;;;;;;;;;;30.13;35.95;102114.72;5058125;28;19916;-55
2023/06/02 11:27:55;;;;;;;;;;;;;;;30.69;35.71;102114.94;5058507;28;20035;-58
2023/06/02 11:30:21;;;;;;;;;;;;;;;31.18;34.77;102105.19;5059508;28;19944;-55
2023/06/02 11:32:51;;;;;;;;;;;;;;;31.22;34.65;102110.97;5061861;28;19952;-58
2023/06/02 11:35:20;;;;;;;;;;;;;;;31.70;33.73;102103.34;5061433;28;19935;-55
2023/06/02 11:37:59;;;;;;;;;;;;;;;32.73;33.28;102111.19;5058799;28;19913;-56
2023/06/02 11:40:27;;;;;;;;;;;;;;;32.91;32.46;102109.34;5062458;28;19920;-55
2023/06/02 11:42:53;;;;;;;;;;;;;;;33.25;32.69;102115.38;5057150;28;19916;-56
2023/06/02 11:45:25;;;;;;;;;;;;;;;32.83;32.73;102112.88;5060599;28;19936;-55
2023/06/02 11:48:07;;;;;;;;;;;;;;;32.09;33.76;102110.25;5056230;28;19916;-56
2023/06/02 11:50:33;;;;;;;;;;;;;;;31.92;33.32;102104.56;5055482;28;19940;-57
2023/06/02 11:52:58;;;;;;;;;;;;;;;32.69;32.75;102111.00;5064507;28;19964;-55
2023/06/02 11:55:27;;;;;;;;;;;;;;;34.31;31.07;102102.47;5059530;28;20486;-56
2023/06/02 11:57:53;;;;;;;;;;;;;;;34.08;31.32;102112.97;5055509;28;19913;-57
2023/06/02 12:00:19;;;;;;;;;;;;;;;33.10;32.13;102111.06;5051960;28;19936;-56
2023/06/02 12:02:57;;;;;;;;;;;;;;;33.87;31.58;102106.06;5052873;28;19913;-57
2023/06/02 12:05:29;;;;;;;;;;;;;;;35.62;29.99;102110.69;5058282;28;19920;-57
2023/06/02 12:07:56;;;;;;;;;;;;;;;37.16;28.16;102122.97;5062472;28;19940;-58
2023/06/02 12:10:21;;;;;;;;;;;;;;;35.85;28.75;102111.16;5059652;28;19917;-54
2023/06/02 12:12:47;;;;;;;;;;;;;;;36.63;28.18;102116.41;5051321;28;19913;-56
2023/06/02 12:15:13;;;;;;;;;;;;;;;35.94;28.62;102111.09;5055908;28;19913;-56
2023/06/02 12:17:39;;;;;;;;;;;;;;;36.43;28.14;102116.88;5059440;28;19913;-57
2023/06/02 12:20:05;;;;;;;;;;;;;;;35.60;28.55;102111.03;5059163;28;19909;-57
2023/06/02 12:22:30;;;;;;;;;;;;;;;35.28;28.82;102107.75;5059021;28;19955;-56
2023/06/02 12:24:56;;;;;;;;;;;;;;;35.86;28.79;102105.28;5057448;28;19920;-56
2023/06/02 12:27:22;;;;;;;;;;;;;;;36.59;27.78;102114.31;5062520;28;20006;-52
2023/06/02 12:29:47;;;;;;;;;;;;;;;37.32;27.17;102108.34;5056544;28;19916;-56
2023/06/02 12:32:15;;;;;;;;;;;;;;;36.31;28.06;102108.50;5058652;28;19913;-51
2023/06/02 12:34:42;;;;;;;;;;;;;;;35.21;28.96;102099.94;5060474;28;19980;-56
2023/06/02 12:37:07;;;;;;;;;;;;;;;35.34;28.90;102105.63;5054169;28;19912;-58